Freedom, Wisconsin
Current Conditions -  °F | °C
As of 9:27 AM on Monday 22 Dec 2014 (Local Time) from KGRB Reporting Station
Haze Haze  
Wind Chill: 28°   Ceiling: 1100
Heat Index: 36°   Visibility: 3mi
Dew Point: 34°   Wind: 13mph
Humidity: 93%   Direction: 150°SSE
Pressure: 29.91"   Gusts: NA
Location:  44.39°N, 88.29°W
Report Text: KGRB 221527Z 15011KT 3SM BR BKN011 BKN030 OVC050 02/01 A2991 RMK AO2 RAE1457 P0000 T00220011
Loading
Personal Weather Stations






























Interactive Weather Map New forecast layout! Learn more

10-Day Weather Forecast

Advertisements
Track Severe Weather on mobile